メインページ
METAR-TAF:

METAR-TAF

空港 :

ロングアイランド・マッカーサー空港

Islip, ニューヨーク, アメリカ合衆国

緯度: 40-47-38N, 経度: 073-06-06W, 海抜: 30m

現時点の気象観測

当レポートは42分前の05:56(UTC)に作成
北/北東の風 16kt、最大23ktの突風を伴う
気温 8°C
湿度 87%
気圧 1011 hPa
視程: 16.1km
高度1500ftの雲はほとんどない
高度2600ftの曇り

METAR: KISP 040556Z AUTO 02016G23KT 10SM FEW015 OVC026 08/06 A2985 RMK AO2 SLP107 60000 T00830061 10100 20078 51008

時間: 02:38 (06:38 UTC)

予報

当レポートは1時間18分前の05:20(UTC)に作成
予報は04日の 06時(UTC)から 05日の 06時(UTC)まで有効
の風 14kt、最大21ktの突風を伴う
視程: 10km
高度2000ftの曇り
04日の 0900時(UTC)から
北/北東の風 13kt
視程: 10km
高度2000ftの曇り
04日の 1400時(UTC)から
北/北東の風 13kt
視程: 10km
高度3000ftの曇り
04日の 2000時(UTC)から
東/北東の風 10kt
視程: 10km
高度3500ftの千切れ雲あり
04日の 2300時(UTC)から
の風 7kt
視程: 10km
高度3500ftの千切れ雲あり
05日の 0300時(UTC)から
変向風 4kt
視程: 10km
高度3500ftの千切れ雲あり

TAF: KISP 040520Z 0406/0506 01014G21KT P6SM OVC020 FM040900 02013KT P6SM OVC020 FM041400 03013KT P6SM OVC030 FM042000 06010KT P6SM BKN035 FM042300 10007KT P6SM BKN035 FM050300 VRB04KT P6SM BKN035

4,000以上の空港の気象観測と天気予報(METAR報とTAF報)

利用可能な観測所は地図上に黄色い丸と赤い丸で示す。

丸の上にカーソルを重ねると観測所名を参照できる。

次にクリックすると気象観測と天気予報を参照できる。

マップの切り替え:黒色「×」印の緑ボタンをクリックして拡大、「-」印の緑ボタンをクリックして縮小、緑色の三角印をクリックして隣りの地図に切り替え


METAR-TAF: